createdAt,value
2019-01-15T00:00:24.298Z,1003.94
2019-01-15T00:01:24.281Z,1003.90
2019-01-15T00:02:24.283Z,1003.97
2019-01-15T00:03:24.291Z,1003.90
2019-01-15T00:04:24.253Z,1004.01
2019-01-15T00:05:24.290Z,1003.98
2019-01-15T00:06:24.243Z,1004.00
2019-01-15T00:07:24.220Z,1003.93
2019-01-15T00:08:24.205Z,1003.96
2019-01-15T00:09:24.205Z,1003.90
2019-01-15T00:10:24.196Z,1004.00
2019-01-15T00:11:24.206Z,1004.01
2019-01-15T00:12:24.173Z,1004.02
2019-01-15T00:13:24.188Z,1004.00
2019-01-15T00:14:24.148Z,1003.98
2019-01-15T00:15:24.135Z,1003.98
2019-01-15T00:16:24.137Z,1004.01
2019-01-15T00:17:24.122Z,1004.01
2019-01-15T00:18:24.106Z,1004.08
2019-01-15T00:19:24.113Z,1004.20
2019-01-15T00:20:24.117Z,1004.02
2019-01-15T00:21:24.072Z,1004.05
2019-01-15T00:22:24.061Z,1004.02
2019-01-15T00:23:24.058Z,1004.03
2019-01-15T00:24:24.046Z,1003.93
2019-01-15T00:25:24.032Z,1003.99
2019-01-15T00:26:24.044Z,1004.08
2019-01-15T00:27:24.004Z,1004.00
2019-01-15T00:28:23.996Z,1003.99
2019-01-15T00:29:23.981Z,1003.95
2019-01-15T00:30:23.971Z,1003.92
2019-01-15T00:31:24.003Z,1004.01
2019-01-15T00:32:23.963Z,1003.93
2019-01-15T00:33:23.947Z,1003.97
2019-01-15T00:34:23.930Z,1004.08
2019-01-15T00:35:23.927Z,1004.08
2019-01-15T00:36:23.915Z,1004.08
2019-01-15T00:37:23.935Z,1004.24
2019-01-15T00:38:23.896Z,1004.08
2019-01-15T00:39:23.885Z,1004.27
2019-01-15T00:40:23.868Z,1004.08
2019-01-15T00:41:23.899Z,1004.04
2019-01-15T00:42:23.847Z,1003.97
2019-01-15T00:43:24.066Z,1003.90
2019-01-15T00:44:23.843Z,1004.03
2019-01-15T00:45:23.824Z,1004.04
2019-01-15T00:46:23.813Z,1004.05
2019-01-15T00:47:23.829Z,1004.01
2019-01-15T00:48:23.780Z,1004.10
2019-01-15T00:49:23.777Z,1004.11
2019-01-15T00:50:23.783Z,1004.09
2019-01-15T00:51:23.755Z,1004.12
2019-01-15T00:52:23.740Z,1004.10
2019-01-15T00:53:23.760Z,1004.18
2019-01-15T00:54:23.717Z,1004.04
2019-01-15T00:55:23.781Z,1004.08
2019-01-15T00:56:23.713Z,1004.17
2019-01-15T00:57:23.695Z,1004.18
2019-01-15T00:58:23.684Z,1004.13
2019-01-15T00:59:23.694Z,1004.11
2019-01-15T01:00:23.654Z,1004.11
2019-01-15T01:01:23.705Z,1004.22
2019-01-15T01:02:23.638Z,1004.07
2019-01-15T01:03:23.662Z,1004.20
2019-01-15T01:04:23.637Z,1004.20
2019-01-15T01:05:23.628Z,1004.23
2019-01-15T01:06:23.593Z,1004.21
2019-01-15T01:07:23.655Z,1004.18
2019-01-15T01:08:23.614Z,1004.17
2019-01-15T01:09:23.592Z,1004.19
2019-01-15T01:10:23.557Z,1004.17
2019-01-15T01:11:23.540Z,1004.12
2019-01-15T01:12:23.582Z,1004.12
2019-01-15T01:13:23.599Z,1004.16
2019-01-15T01:14:23.566Z,1004.26
2019-01-15T01:15:23.505Z,1004.25
2019-01-15T01:16:23.492Z,1004.30
2019-01-15T01:17:23.489Z,1004.39
2019-01-15T01:18:23.491Z,1004.31
2019-01-15T01:19:23.455Z,1004.33
2019-01-15T01:20:23.443Z,1004.33
2019-01-15T01:21:23.462Z,1004.34
2019-01-15T01:22:23.428Z,1004.30
2019-01-15T01:23:23.443Z,1004.43
2019-01-15T01:24:23.401Z,1004.42
2019-01-15T01:25:23.400Z,1004.37
2019-01-15T01:26:23.404Z,1004.36
2019-01-15T01:27:23.400Z,1004.29
2019-01-15T01:28:23.389Z,1004.40
2019-01-15T01:29:23.364Z,1004.32
2019-01-15T01:30:23.339Z,1004.26
2019-01-15T01:31:23.330Z,1004.33
2019-01-15T01:32:23.349Z,1004.43
2019-01-15T01:33:23.305Z,1004.51
2019-01-15T01:34:23.289Z,1004.45
2019-01-15T01:35:23.291Z,1004.46
2019-01-15T01:36:23.276Z,1004.52
2019-01-15T01:37:23.257Z,1004.43
2019-01-15T01:38:23.278Z,1004.40
2019-01-15T01:39:23.241Z,1004.44
2019-01-15T01:40:23.244Z,1004.48
2019-01-15T01:41:23.221Z,1004.47
2019-01-15T01:42:29.449Z,1004.52
2019-01-15T01:43:24.219Z,1004.55
2019-01-15T01:44:23.184Z,1004.53
2019-01-15T01:45:23.173Z,1004.61
2019-01-15T01:46:23.164Z,1004.62
2019-01-15T01:47:23.160Z,1004.59
2019-01-15T01:48:23.168Z,1004.61
2019-01-15T01:49:23.149Z,1004.65
2019-01-15T01:50:23.130Z,1004.70
2019-01-15T01:51:23.132Z,1004.67
2019-01-15T01:52:23.100Z,1004.60
2019-01-15T01:53:23.093Z,1004.62
2019-01-15T01:54:23.083Z,1004.69
2019-01-15T01:55:23.067Z,1004.69
2019-01-15T01:56:23.077Z,1004.65
2019-01-15T01:57:23.048Z,1004.75
2019-01-15T01:58:23.058Z,1004.76
2019-01-15T01:59:23.033Z,1004.70
2019-01-15T02:00:23.053Z,1004.72
2019-01-15T02:01:23.018Z,1004.74
2019-01-15T02:02:23.000Z,1004.87
2019-01-15T02:03:23.003Z,1004.78
2019-01-15T02:04:22.971Z,1004.80
2019-01-15T02:05:22.967Z,1004.81
2019-01-15T02:06:22.949Z,1004.81
2019-01-15T02:07:22.946Z,1004.83
2019-01-15T02:08:22.967Z,1004.86
2019-01-15T02:09:22.919Z,1004.90
2019-01-15T02:10:22.908Z,1004.86
2019-01-15T02:11:22.908Z,1004.86
2019-01-15T02:12:22.892Z,1004.85
2019-01-15T02:13:22.886Z,1004.85
2019-01-15T02:14:22.894Z,1004.91
2019-01-15T02:15:22.857Z,1004.83
2019-01-15T02:16:22.845Z,1004.80
2019-01-15T02:17:22.838Z,1004.88
2019-01-15T02:18:22.823Z,1004.71
2019-01-15T02:19:22.856Z,1004.87
2019-01-15T02:20:22.809Z,1004.71
2019-01-15T02:21:22.829Z,1004.77
2019-01-15T02:22:22.789Z,1004.78
2019-01-15T02:23:22.770Z,1004.73
2019-01-15T02:24:22.761Z,1004.83
2019-01-15T02:25:22.757Z,1004.79
2019-01-15T02:26:22.779Z,1004.88
2019-01-15T02:27:22.728Z,1004.87
2019-01-15T02:28:22.717Z,1004.84
2019-01-15T02:29:22.706Z,1004.84
2019-01-15T02:30:22.703Z,1004.92
2019-01-15T02:31:22.694Z,1004.87
2019-01-15T02:32:22.712Z,1004.88
2019-01-15T02:33:22.673Z,1004.91
2019-01-15T02:34:22.664Z,1004.97
2019-01-15T02:35:22.647Z,1004.99
2019-01-15T02:36:22.662Z,1004.93
2019-01-15T02:37:22.656Z,1004.87
2019-01-15T02:38:22.615Z,1004.84
2019-01-15T02:39:22.610Z,1004.82
2019-01-15T02:40:22.647Z,1004.90
2019-01-15T02:41:22.592Z,1004.92
2019-01-15T02:42:22.570Z,1005.00
2019-01-15T02:43:22.589Z,1004.98
2019-01-15T02:44:22.555Z,1005.10
2019-01-15T02:45:22.551Z,1005.11
2019-01-15T02:46:22.537Z,1004.97
2019-01-15T02:47:22.534Z,1004.97
2019-01-15T02:48:22.533Z,1005.08
2019-01-15T02:49:22.521Z,1005.08
2019-01-15T02:50:22.490Z,1004.98
2019-01-15T02:51:22.485Z,1004.97
2019-01-15T02:52:22.481Z,1004.93
2019-01-15T02:53:22.462Z,1005.03
2019-01-15T02:54:22.476Z,1004.95
2019-01-15T02:55:22.435Z,1005.05
2019-01-15T02:56:22.455Z,1004.98
2019-01-15T02:57:22.420Z,1005.06
2019-01-15T02:58:22.445Z,1005.01
2019-01-15T02:59:22.393Z,1005.06
2019-01-15T03:00:22.410Z,1004.98
2019-01-15T03:01:22.372Z,1004.98
2019-01-15T03:02:22.363Z,1004.99
2019-01-15T03:03:22.362Z,1004.91
2019-01-15T03:04:22.371Z,1005.03
2019-01-15T03:05:22.329Z,1004.96
2019-01-15T03:06:22.317Z,1005.00
2019-01-15T03:07:22.320Z,1004.96
2019-01-15T03:08:22.305Z,1005.03
2019-01-15T03:09:22.296Z,1004.96
2019-01-15T03:10:22.306Z,1005.09
2019-01-15T03:11:22.266Z,1005.02
2019-01-15T03:12:22.255Z,1004.99
2019-01-15T03:13:22.251Z,1005.09
2019-01-15T03:14:22.246Z,1005.09
2019-01-15T03:15:22.248Z,1005.11
2019-01-15T03:16:22.215Z,1005.05
2019-01-15T03:17:22.202Z,1005.01
2019-01-15T03:18:22.195Z,1005.11
2019-01-15T03:19:22.190Z,1005.11
2019-01-15T03:20:22.211Z,1005.08
2019-01-15T03:21:22.181Z,1005.16
2019-01-15T03:22:22.159Z,1005.18
2019-01-15T03:23:22.138Z,1005.17
2019-01-15T03:24:22.133Z,1005.12
2019-01-15T03:25:22.122Z,1005.15
2019-01-15T03:26:22.130Z,1005.16
2019-01-15T03:27:22.104Z,1005.16
2019-01-15T03:28:22.095Z,1005.20
2019-01-15T03:29:22.112Z,1005.15
2019-01-15T03:30:22.067Z,1005.14
2019-01-15T03:31:22.082Z,1005.21
2019-01-15T03:32:22.054Z,1005.17
2019-01-15T03:33:22.041Z,1005.18
2019-01-15T03:34:22.030Z,1005.17
2019-01-15T03:35:22.015Z,1005.09
2019-01-15T03:36:22.037Z,1005.12
2019-01-15T03:37:21.992Z,1004.99
2019-01-15T03:38:21.983Z,1005.11
2019-01-15T03:39:21.993Z,1005.19
2019-01-15T03:40:21.965Z,1005.11
2019-01-15T03:41:21.957Z,1005.10
2019-01-15T03:42:21.972Z,1005.15
2019-01-15T03:43:21.928Z,1005.18
2019-01-15T03:44:21.918Z,1005.19
2019-01-15T03:45:21.964Z,1005.11
2019-01-15T03:46:21.902Z,1005.15
2019-01-15T03:47:21.917Z,1005.10
2019-01-15T03:48:21.875Z,1005.11
2019-01-15T03:49:21.865Z,1005.15
2019-01-15T03:50:21.860Z,1005.16
2019-01-15T03:51:21.857Z,1005.19
2019-01-15T03:52:21.838Z,1005.20
2019-01-15T03:53:21.858Z,1005.11
2019-01-15T03:54:21.819Z,1005.17
2019-01-15T03:55:21.801Z,1005.13
2019-01-15T03:56:21.795Z,1005.22
2019-01-15T03:57:21.794Z,1005.21
2019-01-15T03:58:21.769Z,1005.17
2019-01-15T03:59:21.793Z,1005.18
2019-01-15T04:00:21.755Z,1005.21
2019-01-15T04:01:21.738Z,1005.11
2019-01-15T04:02:21.732Z,1005.23
2019-01-15T04:03:21.723Z,1005.18
2019-01-15T04:04:21.744Z,1005.25
2019-01-15T04:05:21.701Z,1005.13
2019-01-15T04:06:21.690Z,1005.07
2019-01-15T04:07:21.674Z,1005.20
2019-01-15T04:08:21.678Z,1005.09
2019-01-15T04:09:21.653Z,1005.15
2019-01-15T04:10:21.664Z,1005.23
2019-01-15T04:11:21.644Z,1005.18
2019-01-15T04:12:21.631Z,1005.18
2019-01-15T04:13:22.040Z,1005.18
2019-01-15T04:14:21.610Z,1005.15
2019-01-15T04:15:21.626Z,1005.25
2019-01-15T04:16:21.586Z,1005.17
2019-01-15T04:17:21.576Z,1005.13
2019-01-15T04:18:21.564Z,1005.19
2019-01-15T04:19:21.553Z,1005.24
2019-01-15T04:20:21.544Z,1005.27
2019-01-15T04:21:21.614Z,1005.22
2019-01-15T04:22:21.520Z,1005.34
2019-01-15T04:23:21.512Z,1005.30
2019-01-15T04:24:21.502Z,1005.38
2019-01-15T04:25:21.500Z,1005.40
2019-01-15T04:26:21.492Z,1005.36
2019-01-15T04:27:21.495Z,1005.29
2019-01-15T04:28:21.456Z,1005.40
2019-01-15T04:29:21.442Z,1005.40
2019-01-15T04:30:21.433Z,1005.41
2019-01-15T04:31:21.433Z,1005.36
2019-01-15T04:32:21.439Z,1005.39
2019-01-15T04:33:21.400Z,1005.33
2019-01-15T04:34:21.391Z,1005.29
2019-01-15T04:35:21.388Z,1005.31
2019-01-15T04:36:21.377Z,1005.32
2019-01-15T04:37:21.387Z,1005.43
2019-01-15T04:38:21.361Z,1005.31
2019-01-15T04:39:21.339Z,1005.31
2019-01-15T04:40:21.341Z,1005.34
2019-01-15T04:41:21.322Z,1005.32
2019-01-15T04:42:21.340Z,1005.22
2019-01-15T04:43:21.306Z,1005.42
2019-01-15T04:44:21.299Z,1005.27
2019-01-15T04:45:21.283Z,1005.29
2019-01-15T04:46:21.274Z,1005.39
2019-01-15T04:47:21.256Z,1005.30
2019-01-15T04:48:21.349Z,1005.30
2019-01-15T04:49:21.242Z,1005.31
2019-01-15T04:50:21.237Z,1005.27
2019-01-15T04:51:21.217Z,1005.27
2019-01-15T04:52:21.203Z,1005.24
2019-01-15T04:53:21.193Z,1005.23
2019-01-15T04:54:21.224Z,1005.21
2019-01-15T04:55:21.181Z,1005.28
2019-01-15T04:56:21.169Z,1005.20
2019-01-15T04:57:21.157Z,1005.20
2019-01-15T04:58:21.148Z,1005.24
2019-01-15T04:59:21.129Z,1005.33
2019-01-15T05:00:21.145Z,1005.26
2019-01-15T05:01:21.122Z,1005.22
2019-01-15T05:02:21.097Z,1005.23
2019-01-15T05:03:21.099Z,1005.15
2019-01-15T05:04:21.086Z,1005.15
2019-01-15T05:05:21.104Z,1005.21
2019-01-15T05:06:21.057Z,1005.10
2019-01-15T05:07:21.052Z,1005.17
2019-01-15T05:08:21.043Z,1005.11
2019-01-15T05:09:21.032Z,1005.03
2019-01-15T05:10:21.055Z,1005.11
2019-01-15T05:11:21.016Z,1005.08
2019-01-15T05:12:20.994Z,1005.08
2019-01-15T05:13:27.316Z,1005.04
2019-01-15T05:14:21.973Z,1005.02
2019-01-15T05:15:21.003Z,1005.01
2019-01-15T05:16:20.960Z,1004.90
2019-01-15T05:17:20.948Z,1005.01
2019-01-15T05:18:20.936Z,1005.04
2019-01-15T05:19:20.923Z,1005.00
2019-01-15T05:20:20.924Z,1004.98
2019-01-15T05:21:20.942Z,1005.02
2019-01-15T05:22:20.902Z,1005.06
2019-01-15T05:23:20.881Z,1005.13
2019-01-15T05:24:20.869Z,1004.97
2019-01-15T05:25:20.871Z,1005.02
2019-01-15T05:26:20.853Z,1004.86
2019-01-15T05:27:20.871Z,1004.98
2019-01-15T05:28:20.836Z,1004.91
2019-01-15T05:29:20.822Z,1004.91
2019-01-15T05:30:20.812Z,1004.96
2019-01-15T05:31:20.795Z,1004.90
2019-01-15T05:32:20.816Z,1004.95
2019-01-15T05:33:20.779Z,1004.86
2019-01-15T05:34:20.765Z,1004.95
2019-01-15T05:35:20.835Z,1004.99
2019-01-15T05:36:20.764Z,1004.91
2019-01-15T05:37:20.740Z,1004.93
2019-01-15T05:38:20.744Z,1004.95
2019-01-15T05:39:20.718Z,1004.92
2019-01-15T05:40:20.714Z,1005.19
2019-01-15T05:41:20.705Z,1004.93
2019-01-15T05:42:20.690Z,1004.96
2019-01-15T05:43:20.705Z,1004.97
2019-01-15T05:44:20.665Z,1004.93
2019-01-15T05:45:20.700Z,1005.03
2019-01-15T05:46:20.638Z,1005.09
2019-01-15T05:47:20.720Z,1005.01
2019-01-15T05:48:20.628Z,1005.09
2019-01-15T05:49:20.644Z,1005.05
2019-01-15T05:50:20.606Z,1004.97
2019-01-15T05:51:20.611Z,1004.99
2019-01-15T05:52:20.573Z,1005.05
2019-01-15T05:53:20.586Z,1004.90
2019-01-15T05:54:20.560Z,1005.04
2019-01-15T05:55:20.567Z,1005.04
2019-01-15T05:56:20.561Z,1004.97
2019-01-15T05:57:20.522Z,1005.01
2019-01-15T05:58:20.514Z,1005.02
2019-01-15T05:59:20.506Z,1005.04
2019-01-15T06:00:20.537Z,1004.91
2019-01-15T06:01:20.495Z,1004.96
2019-01-15T06:02:20.474Z,1004.98
2019-01-15T06:03:20.479Z,1004.98
2019-01-15T06:04:20.462Z,1004.99
2019-01-15T06:05:20.447Z,1005.00
2019-01-15T06:06:20.442Z,1005.02
2019-01-15T06:07:21.196Z,1005.02
2019-01-15T06:08:20.429Z,1005.02
2019-01-15T06:09:20.399Z,1005.01
2019-01-15T06:10:20.389Z,1005.12
2019-01-15T06:11:20.486Z,1004.91
2019-01-15T06:12:20.373Z,1005.13
2019-01-15T06:13:20.399Z,1005.07
2019-01-15T06:14:20.354Z,1005.04
2019-01-15T06:15:20.333Z,1004.93
2019-01-15T06:16:20.324Z,1004.95
2019-01-15T06:17:20.319Z,1004.92
2019-01-15T06:18:20.302Z,1004.88
2019-01-15T06:19:20.328Z,1004.97
2019-01-15T06:20:20.295Z,1004.95
2019-01-15T06:21:20.369Z,1004.98
2019-01-15T06:22:21.248Z,1004.93
2019-01-15T06:23:20.305Z,1004.92
2019-01-15T06:24:20.276Z,1004.95
2019-01-15T06:25:20.277Z,1005.04
2019-01-15T06:26:20.229Z,1004.82
2019-01-15T06:27:20.210Z,1004.81
2019-01-15T06:28:20.203Z,1004.79
2019-01-15T06:29:20.224Z,1004.99
2019-01-15T06:30:20.182Z,1004.76
2019-01-15T06:31:20.172Z,1004.84
2019-01-15T06:32:20.167Z,1004.72
2019-01-15T06:33:20.162Z,1004.78
2019-01-15T06:34:20.148Z,1004.84
2019-01-15T06:35:20.156Z,1004.89
2019-01-15T06:36:20.118Z,1004.78
2019-01-15T06:37:20.105Z,1004.92
2019-01-15T06:38:20.098Z,1004.84
2019-01-15T06:39:20.089Z,1004.82
2019-01-15T06:40:20.115Z,1004.85
2019-01-15T06:41:20.068Z,1004.93
2019-01-15T06:42:20.090Z,1004.90
2019-01-15T06:43:20.046Z,1004.86
2019-01-15T06:44:20.036Z,1005.01
2019-01-15T06:45:20.024Z,1004.98
2019-01-15T06:46:20.058Z,1004.90
2019-01-15T06:47:20.002Z,1005.11
2019-01-15T06:48:19.989Z,1005.10
2019-01-15T06:49:19.995Z,1004.97
2019-01-15T06:50:19.965Z,1005.00
2019-01-15T06:51:19.967Z,1004.88
2019-01-15T06:52:19.979Z,1004.89
2019-01-15T06:53:19.947Z,1004.96
2019-01-15T06:54:19.930Z,1004.91
2019-01-15T06:55:19.914Z,1004.89
2019-01-15T06:56:19.902Z,1004.85
2019-01-15T06:57:19.941Z,1004.93
2019-01-15T06:58:19.889Z,1004.86
2019-01-15T06:59:19.918Z,1004.89
2019-01-15T07:00:19.865Z,1004.96
2019-01-15T07:01:19.876Z,1004.91
2019-01-15T07:02:19.876Z,1004.90
2019-01-15T07:03:19.927Z,1004.87
2019-01-15T07:04:19.828Z,1004.85
2019-01-15T07:05:19.842Z,1005.17
2019-01-15T07:06:19.808Z,1004.78
2019-01-15T07:07:19.791Z,1004.88
2019-01-15T07:08:19.814Z,1004.93
2019-01-15T07:09:19.772Z,1004.92
2019-01-15T07:10:19.761Z,1004.91
2019-01-15T07:11:19.761Z,1004.93
2019-01-15T07:12:19.746Z,1004.94
2019-01-15T07:13:19.734Z,1005.03
2019-01-15T07:14:19.744Z,1004.98
2019-01-15T07:15:19.717Z,1005.01
2019-01-15T07:16:19.703Z,1005.00
2019-01-15T07:17:19.718Z,1004.93
2019-01-15T07:18:19.686Z,1004.94
2019-01-15T07:19:19.666Z,1004.93
2019-01-15T07:20:19.680Z,1004.96
2019-01-15T07:21:19.659Z,1004.93
2019-01-15T07:22:19.645Z,1004.81
2019-01-15T07:23:19.641Z,1004.98
2019-01-15T07:24:19.649Z,1004.84
2019-01-15T07:25:19.606Z,1004.85
2019-01-15T07:26:19.596Z,1004.89
2019-01-15T07:27:19.611Z,1004.83
2019-01-15T07:28:19.575Z,1004.84
2019-01-15T07:29:19.604Z,1004.90
2019-01-15T07:30:19.561Z,1004.80
2019-01-15T07:31:19.541Z,1004.78
2019-01-15T07:32:19.568Z,1004.90
2019-01-15T07:33:19.518Z,1004.81
2019-01-15T07:34:19.513Z,1004.80
2019-01-15T07:35:19.503Z,1004.80
2019-01-15T07:36:19.496Z,1004.93
2019-01-15T07:37:19.494Z,1004.89
2019-01-15T07:38:19.507Z,1004.80
2019-01-15T07:39:19.467Z,1004.88
2019-01-15T07:40:19.460Z,1004.86
2019-01-15T07:41:19.463Z,1004.88
2019-01-15T07:42:19.461Z,1004.83
2019-01-15T07:43:19.424Z,1004.86
2019-01-15T07:44:19.439Z,1004.78
2019-01-15T07:45:19.393Z,1004.83
2019-01-15T07:46:19.383Z,1004.73
2019-01-15T07:47:19.376Z,1004.81
2019-01-15T07:48:19.371Z,1004.83
2019-01-15T07:49:19.383Z,1004.74
2019-01-15T07:50:19.355Z,1004.65
2019-01-15T07:51:19.331Z,1004.63
2019-01-15T07:52:19.322Z,1004.55
2019-01-15T07:53:19.311Z,1004.49
2019-01-15T07:54:19.349Z,1004.52
2019-01-15T07:55:19.295Z,1004.57
2019-01-15T07:56:19.341Z,1004.61
2019-01-15T07:57:19.276Z,1004.59
2019-01-15T07:58:19.274Z,1004.60
2019-01-15T07:59:19.258Z,1004.77
2019-01-15T08:00:19.271Z,1004.66
2019-01-15T08:01:19.232Z,1004.64
2019-01-15T08:02:19.224Z,1004.62
2019-01-15T08:03:19.205Z,1004.56
2019-01-15T08:04:19.211Z,1004.82
2019-01-15T08:05:19.190Z,1004.74
2019-01-15T08:06:19.206Z,1004.75
2019-01-15T08:07:19.171Z,1004.83
2019-01-15T08:08:19.159Z,1004.80
2019-01-15T08:09:19.154Z,1004.87
2019-01-15T08:10:19.144Z,1005.00
2019-01-15T08:11:19.125Z,1004.78
2019-01-15T08:12:19.134Z,1004.79
2019-01-15T08:13:19.102Z,1004.76
2019-01-15T08:14:19.090Z,1004.87
2019-01-15T08:15:19.094Z,1004.76
2019-01-15T08:16:19.074Z,1004.77
2019-01-15T08:17:19.087Z,1004.87
2019-01-15T08:18:19.078Z,1004.81
2019-01-15T08:19:19.044Z,1004.73
2019-01-15T08:20:19.044Z,1004.81
2019-01-15T08:21:19.034Z,1004.80
2019-01-15T08:22:19.165Z,1004.89
2019-01-15T08:23:19.015Z,1004.79
2019-01-15T08:24:18.989Z,1004.79
2019-01-15T08:25:18.976Z,1004.80
2019-01-15T08:26:18.970Z,1004.69
2019-01-15T08:27:18.991Z,1004.81
2019-01-15T08:28:18.953Z,1004.78
2019-01-15T08:29:18.943Z,1004.86
2019-01-15T08:30:18.931Z,1004.80
2019-01-15T08:31:18.911Z,1004.82
2019-01-15T08:32:18.904Z,1004.86
2019-01-15T08:33:18.924Z,1004.84
2019-01-15T08:34:18.886Z,1004.79
2019-01-15T08:35:18.875Z,1004.89
2019-01-15T08:36:18.861Z,1004.80
2019-01-15T08:37:18.851Z,1004.77
2019-01-15T08:38:18.895Z,1004.91
2019-01-15T08:39:18.847Z,1004.77
2019-01-15T08:40:18.824Z,1005.00
2019-01-15T08:41:18.909Z,1004.91
2019-01-15T08:42:18.806Z,1004.63
2019-01-15T08:43:18.786Z,1004.80
2019-01-15T08:44:19.313Z,1004.80
2019-01-15T08:45:18.771Z,1004.60
2019-01-15T08:46:18.760Z,1004.63
2019-01-15T08:47:18.760Z,1004.71
2019-01-15T08:48:18.745Z,1004.83
2019-01-15T08:49:18.745Z,1004.71
2019-01-15T08:50:18.726Z,1004.68
2019-01-15T08:51:18.717Z,1004.72
2019-01-15T08:52:18.700Z,1004.61
2019-01-15T08:53:18.694Z,1004.58
2019-01-15T08:54:18.718Z,1004.70
2019-01-15T08:55:18.698Z,1004.66
2019-01-15T08:56:18.660Z,1004.66
2019-01-15T08:57:18.650Z,1004.66
2019-01-15T08:58:18.628Z,1004.89
2019-01-15T08:59:18.637Z,1004.68
2019-01-15T09:00:18.615Z,1004.79
2019-01-15T09:01:18.657Z,1004.81
2019-01-15T09:02:18.630Z,1004.67
2019-01-15T09:03:18.587Z,1004.63
2019-01-15T09:04:18.576Z,1004.68
2019-01-15T09:05:18.583Z,1004.61
2019-01-15T09:06:18.617Z,1004.64
2019-01-15T09:07:18.568Z,1004.62
2019-01-15T09:08:18.529Z,1004.72
2019-01-15T09:09:18.513Z,1004.63
2019-01-15T09:10:18.509Z,1004.76
2019-01-15T09:11:18.547Z,1004.76
2019-01-15T09:12:18.493Z,1004.58
2019-01-15T09:13:18.528Z,1004.82
2019-01-15T09:14:18.477Z,1004.59
2019-01-15T09:15:18.487Z,1004.63
2019-01-15T09:16:18.447Z,1004.57
2019-01-15T09:17:18.443Z,1004.81
2019-01-15T09:18:18.465Z,1004.65
2019-01-15T09:19:18.564Z,1004.69
2019-01-15T09:20:18.443Z,1004.70
2019-01-15T09:21:18.423Z,1004.71
2019-01-15T09:22:18.380Z,1004.82
2019-01-15T09:23:18.387Z,1004.87
2019-01-15T09:24:18.370Z,1004.86
2019-01-15T09:25:18.410Z,1004.82
2019-01-15T09:26:18.364Z,1004.83
2019-01-15T09:27:18.349Z,1004.83
2019-01-15T09:28:18.335Z,1004.83
2019-01-15T09:29:18.311Z,1004.89
2019-01-15T09:30:18.307Z,1004.84
2019-01-15T09:31:18.321Z,1004.84
2019-01-15T09:32:18.292Z,1004.87
2019-01-15T09:33:18.301Z,1004.81
2019-01-15T09:34:18.327Z,1004.90
2019-01-15T09:35:18.247Z,1004.89
2019-01-15T09:36:18.236Z,1004.99
2019-01-15T09:37:18.267Z,1004.94
2019-01-15T09:38:18.233Z,1004.93
2019-01-15T09:39:18.214Z,1004.83
2019-01-15T09:40:18.201Z,1004.82
2019-01-15T09:41:18.186Z,1004.86
2019-01-15T09:42:18.178Z,1004.88
2019-01-15T09:43:18.198Z,1004.91
2019-01-15T09:44:18.175Z,1004.84
2019-01-15T09:45:18.151Z,1004.87
2019-01-15T09:46:18.139Z,1004.92
2019-01-15T09:47:18.120Z,1004.87
2019-01-15T09:48:18.116Z,1004.87
2019-01-15T09:49:18.132Z,1004.83
2019-01-15T09:50:19.562Z,1004.92
2019-01-15T09:51:18.088Z,1004.86
2019-01-15T09:52:20.631Z,1004.82
2019-01-15T09:53:18.058Z,1004.84
2019-01-15T09:54:18.256Z,1005.04
2019-01-15T09:55:18.058Z,1004.77
2019-01-15T09:56:18.050Z,1004.75
2019-01-15T09:57:18.036Z,1004.77
2019-01-15T09:58:18.028Z,1004.79
2019-01-15T09:59:18.006Z,1004.82
2019-01-15T10:00:18.040Z,1004.82
2019-01-15T10:01:18.009Z,1004.81
2019-01-15T10:02:17.988Z,1004.88
2019-01-15T10:03:17.972Z,1004.87
2019-01-15T10:04:17.967Z,1004.81
2019-01-15T10:05:17.955Z,1004.78
2019-01-15T10:06:17.918Z,1004.81
2019-01-15T10:07:17.908Z,1004.92
2019-01-15T10:08:17.893Z,1004.80
2019-01-15T10:09:17.888Z,1004.63
2019-01-15T10:10:17.910Z,1004.72
2019-01-15T10:11:17.863Z,1004.75
2019-01-15T10:12:17.859Z,1004.80
2019-01-15T10:13:17.853Z,1004.70
2019-01-15T10:14:17.826Z,1004.68
2019-01-15T10:15:17.823Z,1004.69
2019-01-15T10:16:17.843Z,1004.77
2019-01-15T10:17:18.005Z,1004.72
2019-01-15T10:18:17.795Z,1004.78
2019-01-15T10:19:17.776Z,1004.82
2019-01-15T10:20:17.804Z,1004.73
2019-01-15T10:21:17.763Z,1004.77
2019-01-15T10:22:17.770Z,1004.61
2019-01-15T10:23:17.741Z,1004.64
2019-01-15T10:24:17.728Z,1004.65
2019-01-15T10:25:17.712Z,1004.77
2019-01-15T10:26:17.705Z,1004.68
2019-01-15T10:27:17.737Z,1004.68
2019-01-15T10:28:17.693Z,1004.63
2019-01-15T10:29:17.710Z,1004.71
2019-01-15T10:30:17.677Z,1004.62
2019-01-15T10:31:17.657Z,1004.64
2019-01-15T10:32:17.645Z,1004.64
2019-01-15T10:33:17.651Z,1004.68
2019-01-15T10:34:17.622Z,1004.60
2019-01-15T10:35:17.614Z,1004.61
2019-01-15T10:36:17.605Z,1004.60
2019-01-15T10:37:17.608Z,1004.60
2019-01-15T10:38:17.616Z,1004.57
2019-01-15T10:39:17.576Z,1004.60
2019-01-15T10:40:17.558Z,1004.58
2019-01-15T10:41:17.554Z,1004.52
2019-01-15T10:42:17.544Z,1004.54
2019-01-15T10:43:17.538Z,1004.56
2019-01-15T10:44:17.550Z,1004.60
2019-01-15T10:45:17.558Z,1004.57
2019-01-15T10:46:17.494Z,1004.58
2019-01-15T10:47:17.485Z,1004.54
2019-01-15T10:48:17.479Z,1004.53
2019-01-15T10:49:17.500Z,1004.55
2019-01-15T10:50:17.459Z,1004.57
2019-01-15T10:51:17.446Z,1004.59
2019-01-15T10:52:17.450Z,1004.48
2019-01-15T10:53:17.431Z,1004.51
2019-01-15T10:54:17.414Z,1004.45
2019-01-15T10:55:17.429Z,1004.48
2019-01-15T10:56:17.393Z,1004.34
2019-01-15T10:57:17.381Z,1004.39
2019-01-15T10:58:17.920Z,1004.47
2019-01-15T10:59:17.396Z,1004.49
2019-01-15T11:00:17.378Z,1004.48
2019-01-15T11:01:17.337Z,1004.40
2019-01-15T11:02:17.329Z,1004.46
2019-01-15T11:03:17.341Z,1004.29
2019-01-15T11:04:17.302Z,1004.39
2019-01-15T11:05:17.290Z,1004.38
2019-01-15T11:06:17.308Z,1004.40
2019-01-15T11:07:17.272Z,1004.40
2019-01-15T11:08:17.263Z,1004.36
2019-01-15T11:09:17.249Z,1004.40
2019-01-15T11:10:17.239Z,1004.35
2019-01-15T11:11:17.274Z,1004.38
2019-01-15T11:12:17.232Z,1004.40
2019-01-15T11:13:17.208Z,1004.30
2019-01-15T11:14:17.197Z,1004.33
2019-01-15T11:15:17.183Z,1004.34
2019-01-15T11:16:17.197Z,1004.31
2019-01-15T11:17:17.167Z,1004.36
2019-01-15T11:18:17.152Z,1004.27
2019-01-15T11:19:17.144Z,1004.27
2019-01-15T11:20:17.159Z,1004.30
2019-01-15T11:21:17.156Z,1004.35
2019-01-15T11:22:17.110Z,1004.36
2019-01-15T11:23:17.099Z,1004.24
2019-01-15T11:24:17.166Z,1004.22
2019-01-15T11:25:17.083Z,1004.32
2019-01-15T11:26:17.064Z,1004.25
2019-01-15T11:27:17.094Z,1004.37
2019-01-15T11:28:17.043Z,1004.31
2019-01-15T11:29:17.038Z,1004.16
2019-01-15T11:30:17.023Z,1004.26
2019-01-15T11:31:17.015Z,1004.19
2019-01-15T11:32:17.018Z,1004.15
2019-01-15T11:33:17.015Z,1004.20
2019-01-15T11:34:16.975Z,1004.18
2019-01-15T11:35:16.981Z,1004.24
2019-01-15T11:36:16.951Z,1004.29
2019-01-15T11:37:16.995Z,1004.16
2019-01-15T11:38:16.957Z,1004.26
2019-01-15T11:39:16.922Z,1004.24
2019-01-15T11:40:16.909Z,1004.13
2019-01-15T11:41:16.900Z,1004.25
2019-01-15T11:42:16.888Z,1004.17
2019-01-15T11:43:16.897Z,1004.12
2019-01-15T11:44:16.877Z,1004.11
2019-01-15T11:45:16.903Z,1004.11
2019-01-15T11:46:16.852Z,1004.12
2019-01-15T11:47:16.883Z,1004.07
2019-01-15T11:48:16.820Z,1004.02
2019-01-15T11:49:16.814Z,1004.10
2019-01-15T11:50:16.801Z,1004.04
2019-01-15T11:51:16.816Z,1003.95
2019-01-15T11:52:16.804Z,1003.98
2019-01-15T11:53:16.772Z,1003.94
2019-01-15T11:54:16.799Z,1003.97
2019-01-15T11:55:16.765Z,1003.99
2019-01-15T11:56:16.741Z,1003.91
2019-01-15T11:57:16.731Z,1003.87
2019-01-15T11:58:16.747Z,1003.87
2019-01-15T11:59:16.716Z,1003.91
2019-01-15T12:00:16.705Z,1003.89
2019-01-15T12:01:16.709Z,1003.88
2019-01-15T12:02:22.193Z,1003.81
2019-01-15T12:03:17.709Z,1003.89
2019-01-15T12:04:16.664Z,1003.83
2019-01-15T12:05:16.653Z,1003.93